Time;durP1;ratioP1;P1;durP2;ratioP2;P2;SDS_P1;SDS_P2;PMS_P1;PMS_P2;Temp;Humidity;BMP_temperature;BMP_pressure;BME280_temperature;BME280_humidity;BME280_pressure;Samples;Min_cycle;Max_cycle;Signal;HPM_P1;HPM_P2
2023/12/04 00:01:26;;;;;;;1.40;1.30;;;0.80;99.90;;;;;;7399974;19;20522;-79
2023/12/04 00:03:53;;;;;;;2.30;1.90;;;0.70;99.90;;;;;;7395039;19;20638;-79
2023/12/04 00:06:21;;;;;;;1.80;1.70;;;0.60;99.90;;;;;;7395620;19;20133;-80
2023/12/04 00:08:46;;;;;;;2.33;1.87;;;0.70;99.90;;;;;;7396442;19;20169;-77
2023/12/04 00:11:12;;;;;;;0.77;0.77;;;0.80;99.90;;;;;;7395539;19;20591;-78
2023/12/04 00:13:38;;;;;;;3.93;1.67;;;0.80;99.90;;;;;;7394960;19;20165;-79
2023/12/04 00:16:04;;;;;;;1.27;1.13;;;0.80;99.90;;;;;;7396608;19;20139;-79
2023/12/04 00:18:30;;;;;;;2.90;1.50;;;0.80;99.90;;;;;;7395442;19;20142;-77
2023/12/04 00:20:56;;;;;;;1.23;1.17;;;0.70;99.90;;;;;;7396470;19;20587;-79
2023/12/04 00:23:21;;;;;;;1.77;1.43;;;0.60;99.90;;;;;;7396557;19;20138;-79
2023/12/04 00:25:47;;;;;;;1.50;1.40;;;0.70;99.90;;;;;;7394419;19;20598;-78
2023/12/04 00:28:16;;;;;;;0.97;0.90;;;0.80;99.90;;;;;;7395677;19;20151;-78
2023/12/04 00:30:42;;;;;;;1.27;1.17;;;0.80;99.90;;;;;;7396342;19;20606;-78
2023/12/04 00:33:07;;;;;;;1.20;1.03;;;0.80;99.90;;;;;;7394723;19;20142;-79
2023/12/04 00:35:33;;;;;;;1.00;0.90;;;0.80;99.90;;;;;;7398506;19;20175;-80
2023/12/04 00:37:59;;;;;;;2.87;1.23;;;0.70;99.90;;;;;;7393662;19;20158;-79
2023/12/04 00:40:25;;;;;;;0.70;0.70;;;0.80;99.90;;;;;;7395483;19;20135;-77
2023/12/04 00:42:50;;;;;;;2.13;1.50;;;0.70;99.90;;;;;;7392842;19;20584;-79
2023/12/04 00:45:16;;;;;;;1.97;1.23;;;0.70;99.90;;;;;;7396868;19;20134;-78
2023/12/04 00:47:42;;;;;;;1.77;1.67;;;0.60;99.90;;;;;;7395004;19;20158;-78
2023/12/04 00:50:11;;;;;;;1.67;1.27;;;0.40;99.90;;;;;;7395235;19;20152;-77
2023/12/04 00:52:37;;;;;;;1.97;1.10;;;0.60;99.90;;;;;;7395077;19;20573;-78
2023/12/04 00:55:03;;;;;;;3.13;1.90;;;0.50;99.90;;;;;;7394864;19;20139;-79
2023/12/04 00:57:29;;;;;;;3.27;2.23;;;0.60;99.90;;;;;;7395798;19;20230;-77
2023/12/04 00:59:54;;;;;;;2.07;1.87;;;0.70;99.90;;;;;;7395197;19;20145;-81
2023/12/04 01:02:20;;;;;;;3.60;2.27;;;0.70;99.90;;;;;;7394251;19;20163;-79
2023/12/04 01:04:46;;;;;;;1.80;1.70;;;0.70;99.90;;;;;;7394502;19;20161;-79
2023/12/04 01:07:11;;;;;;;1.13;1.03;;;0.70;99.90;;;;;;7393879;19;20258;-78
2023/12/04 01:09:37;;;;;;;1.93;1.50;;;0.60;99.90;;;;;;7395082;19;20143;-79
2023/12/04 01:12:07;;;;;;;0.80;0.80;;;0.60;99.90;;;;;;7396460;19;20157;-78
2023/12/04 01:14:38;;;;;;;1.90;1.13;;;0.60;99.90;;;;;;7394426;19;20561;-78
2023/12/04 01:17:04;;;;;;;1.97;1.77;;;0.60;99.90;;;;;;7395916;19;20160;-79
2023/12/04 01:19:30;;;;;;;1.17;1.17;;;0.60;99.90;;;;;;7397366;19;20139;-79
2023/12/04 01:21:56;;;;;;;1.83;1.73;;;0.60;99.90;;;;;;7392455;19;20138;-79
2023/12/04 01:24:22;;;;;;;1.07;0.97;;;0.50;99.90;;;;;;7384472;19;20134;-79
2023/12/04 01:26:47;;;;;;;2.33;1.43;;;0.60;99.90;;;;;;7394526;19;20626;-78
2023/12/04 01:29:13;;;;;;;2.23;1.57;;;0.60;99.90;;;;;;7397534;19;20163;-79
2023/12/04 01:31:39;;;;;;;1.70;1.17;;;0.60;99.90;;;;;;7393758;19;20147;-80
2023/12/04 01:34:04;;;;;;;1.37;1.27;;;0.60;99.90;;;;;;7395285;19;20580;-78
2023/12/04 01:36:30;;;;;;;1.70;1.50;;;0.60;99.90;;;;;;7393295;19;20131;-78
2023/12/04 01:38:56;;;;;;;1.63;1.53;;;0.50;99.90;;;;;;7393579;19;20130;-79
2023/12/04 01:41:22;;;;;;;0.73;0.73;;;0.50;99.90;;;;;;7392400;19;20150;-79
2023/12/04 01:43:48;;;;;;;2.47;2.27;;;0.60;99.90;;;;;;7391174;19;20178;-78
2023/12/04 01:46:17;;;;;;;2.53;1.00;;;0.30;99.90;;;;;;7393057;19;20163;-80
2023/12/04 01:48:44;;;;;;;0.70;0.70;;;0.30;99.90;;;;;;7391483;19;20139;-77
2023/12/04 01:51:11;;;;;;;2.17;1.50;;;0.30;99.90;;;;;;7391392;19;20126;-80
2023/12/04 01:53:39;;;;;;;1.70;0.97;;;0.40;99.90;;;;;;7395661;19;20135;-79
2023/12/04 01:56:06;;;;;;;1.23;0.80;;;0.50;99.90;;;;;;7393340;19;20133;-80
2023/12/04 01:58:32;;;;;;;1.03;0.97;;;0.50;99.90;;;;;;7392963;19;20156;-78
2023/12/04 02:00:59;;;;;;;1.23;1.13;;;0.50;99.90;;;;;;7390367;19;20134;-80
2023/12/04 02:03:25;;;;;;;0.60;0.60;;;0.60;99.90;;;;;;7390045;19;20143;-78
2023/12/04 02:05:51;;;;;;;1.10;1.10;;;0.60;99.90;;;;;;7391769;19;20155;-79
2023/12/04 02:08:17;;;;;;;1.00;1.00;;;0.60;99.90;;;;;;7392230;19;20127;-79
2023/12/04 02:10:43;;;;;;;2.53;1.57;;;0.60;99.90;;;;;;7391933;19;20508;-77
2023/12/04 02:13:09;;;;;;;1.90;1.70;;;0.60;99.90;;;;;;7391660;19;20126;-79
2023/12/04 02:15:35;;;;;;;1.37;1.27;;;0.50;99.90;;;;;;7389524;19;20496;-78
2023/12/04 02:18:03;;;;;;;1.20;1.03;;;0.60;99.90;;;;;;7394525;19;20135;-78
2023/12/04 02:20:38;;;;;;;0.73;0.73;;;0.60;99.90;;;;;;7392152;19;20130;-79
2023/12/04 02:23:04;;;;;;;1.77;1.47;;;0.40;99.90;;;;;;7391652;19;20161;-78
2023/12/04 02:25:31;;;;;;;1.00;0.90;;;0.50;99.90;;;;;;7391881;19;20139;-79
2023/12/04 02:28:01;;;;;;;1.57;1.27;;;0.60;99.90;;;;;;7392980;19;20490;-78
2023/12/04 02:30:29;;;;;;;0.60;0.60;;;0.50;99.90;;;;;;7391764;19;20179;-78
2023/12/04 02:32:58;;;;;;;2.30;2.10;;;0.30;99.90;;;;;;7395726;19;20122;-79
2023/12/04 02:35:28;;;;;;;1.50;1.23;;;0.40;99.90;;;;;;7393391;19;20247;-79
2023/12/04 02:37:55;;;;;;;1.90;1.77;;;0.50;99.90;;;;;;7394657;19;20138;-78
2023/12/04 02:40:21;;;;;;;0.67;0.67;;;0.50;99.90;;;;;;7391647;19;20131;-77
2023/12/04 02:42:47;;;;;;;1.37;1.27;;;0.50;99.90;;;;;;7390286;19;20631;-78
2023/12/04 02:45:13;;;;;;;1.90;1.80;;;0.60;99.90;;;;;;7390351;19;20131;-78
2023/12/04 02:47:38;;;;;;;2.37;2.00;;;0.60;99.90;;;;;;7391282;19;20150;-78
2023/12/04 02:50:05;;;;;;;1.47;1.37;;;0.60;99.90;;;;;;7392102;19;20460;-78
2023/12/04 02:52:30;;;;;;;1.13;0.93;;;0.60;99.90;;;;;;7393082;19;20227;-77
2023/12/04 02:54:56;;;;;;;2.43;1.47;;;0.60;99.90;;;;;;7389665;19;20158;-78
2023/12/04 02:57:22;;;;;;;4.00;1.30;;;0.50;99.90;;;;;;7390436;19;20130;-77
2023/12/04 02:59:48;;;;;;;1.47;1.37;;;0.40;99.90;;;;;;7390859;19;20540;-79
2023/12/04 03:02:14;;;;;;;1.87;1.30;;;0.40;99.90;;;;;;7390501;19;20134;-77
2023/12/04 03:04:40;;;;;;;1.50;1.40;;;0.40;99.90;;;;;;7386131;19;20183;-79
2023/12/04 03:07:05;;;;;;;0.90;0.90;;;0.30;99.90;;;;;;7391970;19;20145;-79
2023/12/04 03:09:31;;;;;;;1.20;1.10;;;0.40;99.90;;;;;;7391659;19;20639;-80
2023/12/04 03:11:57;;;;;;;2.43;2.23;;;0.40;99.90;;;;;;7392125;19;20185;-79
2023/12/04 03:14:23;;;;;;;2.37;1.50;;;0.50;99.90;;;;;;7391557;19;20588;-79
2023/12/04 03:16:49;;;;;;;1.40;1.13;;;0.30;99.90;;;;;;7397129;19;20138;-77
2023/12/04 03:19:15;;;;;;;1.60;1.30;;;0.50;99.90;;;;;;7400379;19;20584;-79
2023/12/04 03:21:41;;;;;;;1.30;1.10;;;0.40;99.90;;;;;;7398833;19;20157;-79
2023/12/04 03:24:07;;;;;;;0.93;0.93;;;0.40;99.90;;;;;;7397747;19;20139;-78
2023/12/04 03:26:32;;;;;;;1.87;1.77;;;0.40;99.90;;;;;;7399463;19;20162;-76
2023/12/04 03:28:58;;;;;;;1.27;1.20;;;0.20;99.90;;;;;;7397761;19;20139;-79
2023/12/04 03:31:25;;;;;;;1.50;1.40;;;0.30;99.90;;;;;;7398153;19;20190;-79
2023/12/04 03:33:50;;;;;;;0.60;0.60;;;0.40;99.90;;;;;;7399898;19;20611;-78
2023/12/04 03:36:16;;;;;;;3.23;2.10;;;0.50;99.90;;;;;;7397380;19;20138;-76
2023/12/04 03:38:42;;;;;;;1.57;1.47;;;0.50;99.90;;;;;;7394924;19;20137;-76
2023/12/04 03:41:15;;;;;;;2.13;1.67;;;0.50;99.90;;;;;;7398727;19;20500;-79
2023/12/04 03:43:41;;;;;;;1.13;0.90;;;0.50;99.90;;;;;;7394621;19;20206;-78
2023/12/04 03:46:07;;;;;;;0.60;0.60;;;0.50;99.90;;;;;;7398915;19;20162;-79
2023/12/04 03:48:33;;;;;;;0.90;0.70;;;0.50;99.90;;;;;;7399233;19;20143;-80
2023/12/04 03:50:59;;;;;;;1.23;1.13;;;0.50;99.90;;;;;;7399970;19;20162;-78
2023/12/04 03:53:26;;;;;;;1.43;1.30;;;0.50;99.90;;;;;;7398703;19;20185;-78
2023/12/04 03:55:52;;;;;;;1.00;1.00;;;0.50;99.90;;;;;;7398622;19;20153;-78
2023/12/04 03:58:18;;;;;;;1.57;1.47;;;0.30;99.90;;;;;;7393034;19;20150;-78
2023/12/04 04:00:46;;;;;;;1.40;1.30;;;0.40;99.90;;;;;;7397523;19;20150;-77
2023/12/04 04:03:12;;;;;;;1.53;1.37;;;0.50;99.90;;;;;;7395112;19;20139;-79
2023/12/04 04:05:38;;;;;;;1.83;1.73;;;0.50;99.90;;;;;;7399337;19;20150;-79
2023/12/04 04:08:05;;;;;;;1.47;1.37;;;0.50;99.90;;;;;;7397975;19;20135;-80
2023/12/04 04:10:34;;;;;;;1.10;1.00;;;0.50;99.90;;;;;;7396971;19;20202;-78
2023/12/04 04:13:00;;;;;;;1.43;1.33;;;0.50;99.90;;;;;;7397451;19;20134;-78
2023/12/04 04:15:26;;;;;;;1.00;1.00;;;0.50;99.90;;;;;;7396926;19;20532;-78
2023/12/04 04:17:52;;;;;;;1.43;0.83;;;0.20;99.90;;;;;;7398558;19;20134;-78
2023/12/04 04:20:18;;;;;;;0.93;0.93;;;0.30;99.90;;;;;;7395853;19;20131;-79
2023/12/04 04:22:46;;;;;;;0.97;0.97;;;0.30;99.90;;;;;;7398706;19;20151;-80
2023/12/04 04:25:15;;;;;;;1.50;1.40;;;0.20;99.90;;;;;;7395402;19;20158;-79
2023/12/04 04:27:41;;;;;;;1.23;1.13;;;0.20;99.90;;;;;;7396850;19;20272;-78
2023/12/04 04:30:10;;;;;;;1.73;1.60;;;0.20;99.90;;;;;;7396181;19;20551;-79
2023/12/04 04:32:38;;;;;;;1.73;1.63;;;0.30;99.90;;;;;;7396234;19;20145;-77
2023/12/04 04:35:04;;;;;;;2.23;1.67;;;0.50;99.90;;;;;;7397195;19;20158;-77
2023/12/04 04:37:30;;;;;;;0.80;0.80;;;0.30;99.90;;;;;;7394170;19;20190;-79
2023/12/04 04:39:56;;;;;;;1.80;1.63;;;0.30;99.90;;;;;;7395440;19;20162;-80
2023/12/04 04:42:22;;;;;;;2.27;2.10;;;0.40;99.90;;;;;;7395517;19;20142;-79
2023/12/04 04:44:48;;;;;;;1.93;1.60;;;0.40;99.90;;;;;;7392776;19;20154;-78
2023/12/04 04:47:14;;;;;;;1.00;0.77;;;0.40;99.90;;;;;;7395140;19;20129;-78
2023/12/04 04:49:42;;;;;;;2.17;2.00;;;0.40;99.90;;;;;;7395250;19;20921;-79
2023/12/04 04:52:07;;;;;;;2.00;1.00;;;0.50;99.90;;;;;;7397123;19;20127;-79
2023/12/04 04:54:33;;;;;;;1.93;1.77;;;0.50;99.90;;;;;;7397159;19;20145;-78
2023/12/04 04:56:59;;;;;;;1.33;1.23;;;0.50;99.90;;;;;;7394381;19;20155;-79
2023/12/04 04:59:25;;;;;;;1.27;1.17;;;0.60;99.90;;;;;;7396117;19;20130;-79
2023/12/04 05:01:51;;;;;;;1.97;1.70;;;0.60;99.90;;;;;;7398799;19;20451;-78
2023/12/04 05:04:19;;;;;;;1.63;1.53;;;0.60;99.90;;;;;;7392811;19;20612;-79
2023/12/04 05:06:45;;;;;;;1.97;1.77;;;0.60;99.90;;;;;;7396109;19;20614;-79
2023/12/04 05:09:11;;;;;;;1.47;1.37;;;0.60;99.90;;;;;;7396856;19;20138;-77
2023/12/04 05:11:36;;;;;;;0.93;0.80;;;0.60;99.90;;;;;;7395834;19;20151;-80
2023/12/04 05:14:02;;;;;;;2.33;1.00;;;0.70;99.90;;;;;;7395961;19;20150;-79
2023/12/04 05:16:28;;;;;;;0.87;0.83;;;0.70;99.90;;;;;;7395782;19;20172;-80
2023/12/04 05:18:54;;;;;;;1.57;1.40;;;0.70;99.90;;;;;;7392520;19;20131;-78
2023/12/04 05:21:19;;;;;;;0.80;0.80;;;0.70;99.90;;;;;;7394246;19;20135;-80
2023/12/04 05:23:45;;;;;;;1.37;1.30;;;0.70;99.90;;;;;;7391710;19;20146;-78
2023/12/04 05:26:11;;;;;;;1.33;0.87;;;0.70;99.90;;;;;;7393967;19;20479;-78
2023/12/04 05:28:36;;;;;;;1.00;1.00;;;0.60;99.90;;;;;;7392271;19;20139;-79
2023/12/04 05:31:02;;;;;;;1.37;1.27;;;0.60;99.90;;;;;;7395580;19;20167;-79
2023/12/04 05:33:28;;;;;;;0.87;0.87;;;0.60;99.90;;;;;;7393994;19;20186;-78
2023/12/04 05:35:54;;;;;;;0.73;0.73;;;0.40;99.90;;;;;;7396605;19;20166;-79
2023/12/04 05:38:20;;;;;;;1.70;1.50;;;0.30;99.90;;;;;;7392884;19;20134;-78
2023/12/04 05:40:45;;;;;;;1.97;1.03;;;0.40;99.90;;;;;;7393809;19;20146;-79
2023/12/04 05:43:11;;;;;;;2.10;1.27;;;0.30;99.90;;;;;;7392621;19;20216;-79
2023/12/04 05:45:38;;;;;;;3.40;1.87;;;0.30;99.90;;;;;;7395087;19;20587;-79
2023/12/04 05:48:04;;;;;;;1.40;1.27;;;0.40;99.90;;;;;;7394062;19;20155;-77
2023/12/04 05:50:30;;;;;;;2.00;1.27;;;0.30;99.90;;;;;;7393164;19;20146;-79
2023/12/04 05:52:56;;;;;;;2.03;1.80;;;0.30;99.90;;;;;;7392000;19;20151;-78
2023/12/04 05:55:21;;;;;;;2.23;2.00;;;0.40;99.90;;;;;;7393119;19;20579;-79
2023/12/04 05:57:47;;;;;;;1.37;1.27;;;0.40;99.90;;;;;;7391141;19;20122;-78
2023/12/04 06:00:13;;;;;;;0.97;0.97;;;0.30;99.90;;;;;;7392201;19;20137;-80
2023/12/04 06:02:40;;;;;;;2.27;2.07;;;0.30;99.90;;;;;;7392791;19;20126;-79
2023/12/04 06:05:07;;;;;;;0.93;0.90;;;0.30;99.90;;;;;;7393944;19;20147;-79
2023/12/04 06:07:34;;;;;;;2.27;1.53;;;0.00;99.90;;;;;;7391425;19;20135;-79
2023/12/04 06:10:00;;;;;;;2.03;1.80;;;-0.10;99.90;;;;;;7394396;19;20483;-80
2023/12/04 06:12:25;;;;;;;2.07;1.43;;;0.30;99.90;;;;;;7392804;19;20151;-79
2023/12/04 06:14:51;;;;;;;0.83;0.83;;;0.30;99.90;;;;;;7395742;19;20142;-79
2023/12/04 06:17:17;;;;;;;1.40;1.30;;;0.40;99.90;;;;;;7390984;19;20130;-79
2023/12/04 06:19:43;;;;;;;3.57;1.33;;;0.40;99.90;;;;;;7392916;19;20198;-79
2023/12/04 06:22:09;;;;;;;1.03;0.93;;;0.30;99.90;;;;;;7394806;19;20134;-78
2023/12/04 06:24:35;;;;;;;1.77;1.10;;;0.50;99.90;;;;;;7390629;19;20142;-80
2023/12/04 06:27:01;;;;;;;1.10;1.07;;;0.40;99.90;;;;;;7391810;19;20153;-80
2023/12/04 06:29:27;;;;;;;1.40;1.30;;;0.50;99.90;;;;;;7394612;19;20134;-80
2023/12/04 06:31:53;;;;;;;1.80;1.60;;;0.50;99.90;;;;;;7390850;19;20122;-83
2023/12/04 06:34:20;;;;;;;0.50;0.50;;;0.40;99.90;;;;;;7395311;19;20604;-81
2023/12/04 06:36:45;;;;;;;2.67;1.53;;;0.40;99.90;;;;;;7390502;19;20147;-82
2023/12/04 06:39:12;;;;;;;2.07;1.97;;;0.60;99.90;;;;;;7390055;19;20118;-86
2023/12/04 06:41:42;;;;;;;1.13;1.03;;;-0.10;99.90;;;;;;7388337;19;20142;-82
2023/12/04 06:44:15;;;;;;;1.27;1.17;;;-0.60;99.90;;;;;;7390290;19;20162;-81
2023/12/04 06:46:45;;;;;;;1.70;1.60;;;-0.70;99.90;;;;;;7393326;19;20583;-82
2023/12/04 06:49:13;;;;;;;1.80;1.13;;;-0.80;99.90;;;;;;7395639;19;20130;-79
2023/12/04 06:51:39;;;;;;;0.80;0.80;;;-0.70;99.90;;;;;;7399270;19;20146;-80
2023/12/04 06:54:07;;;;;;;0.73;0.73;;;-0.50;99.90;;;;;;7398126;19;20126;-82
2023/12/04 06:56:36;;;;;;;2.03;1.13;;;-0.10;99.90;;;;;;7398046;19;20470;-82
2023/12/04 06:59:01;;;;;;;1.73;1.00;;;0.10;99.90;;;;;;7401162;19;20135;-79
2023/12/04 07:01:27;;;;;;;0.70;0.70;;;0.30;99.90;;;;;;7396756;19;20147;-79
2023/12/04 07:03:53;;;;;;;2.07;1.63;;;0.40;99.90;;;;;;7395862;19;20218;-80
2023/12/04 07:06:19;;;;;;;1.73;1.20;;;0.30;99.90;;;;;;7397304;19;20601;-78
2023/12/04 07:08:45;;;;;;;1.77;1.33;;;0.40;99.90;;;;;;7398263;19;20143;-76
2023/12/04 07:11:14;;;;;;;3.73;2.70;;;0.30;99.90;;;;;;7397761;19;20142;-76
2023/12/04 07:13:42;;;;;;;1.07;0.90;;;0.20;99.90;;;;;;7396127;19;20138;-76
2023/12/04 07:16:08;;;;;;;1.13;1.07;;;0.30;99.90;;;;;;7394927;19;20153;-77
2023/12/04 07:18:34;;;;;;;2.67;1.37;;;0.30;99.90;;;;;;7396743;19;20134;-78
2023/12/04 07:21:00;;;;;;;2.60;1.20;;;0.20;99.90;;;;;;7396466;19;20674;-78
2023/12/04 07:23:26;;;;;;;2.30;2.10;;;0.20;99.90;;;;;;7395589;19;20126;-78
2023/12/04 07:25:52;;;;;;;1.77;1.20;;;-0.10;99.90;;;;;;7395895;19;20141;-79
2023/12/04 07:28:19;;;;;;;0.77;0.77;;;0.00;99.90;;;;;;7393193;19;20520;-76
2023/12/04 07:30:45;;;;;;;0.93;0.93;;;0.20;99.90;;;;;;7398086;19;20173;-77
2023/12/04 07:33:11;;;;;;;0.83;0.83;;;0.30;99.90;;;;;;7395391;19;20517;-76
2023/12/04 07:35:39;;;;;;;1.00;0.90;;;0.20;99.90;;;;;;7395683;19;20634;-77
2023/12/04 07:38:05;;;;;;;1.53;1.10;;;0.30;99.90;;;;;;7394259;19;20151;-78
2023/12/04 07:40:34;;;;;;;0.73;0.73;;;0.20;99.90;;;;;;7395270;19;20206;-78
2023/12/04 07:42:59;;;;;;;0.77;0.70;;;0.20;99.90;;;;;;7393821;19;20911;-76
2023/12/04 07:45:28;;;;;;;0.50;0.50;;;0.30;99.90;;;;;;7393825;19;20659;-77
2023/12/04 07:47:54;;;;;;;1.00;0.90;;;0.40;99.90;;;;;;7397625;19;20158;-78
2023/12/04 07:50:24;;;;;;;1.43;1.27;;;0.40;99.90;;;;;;7396693;19;20130;-79
2023/12/04 07:52:49;;;;;;;0.80;0.80;;;0.50;99.90;;;;;;7398078;19;20145;-79
2023/12/04 07:55:16;;;;;;;1.73;1.30;;;0.60;99.90;;;;;;7395474;19;20201;-78
2023/12/04 07:57:42;;;;;;;0.83;0.83;;;0.60;99.90;;;;;;7395565;19;20135;-79
2023/12/04 08:00:08;;;;;;;1.30;1.00;;;0.80;99.90;;;;;;7395371;19;20168;-80
2023/12/04 08:02:34;;;;;;;0.70;0.70;;;0.80;99.90;;;;;;7393943;19;20143;-79
2023/12/04 08:04:59;;;;;;;0.80;0.80;;;0.90;99.90;;;;;;7394271;19;20175;-79
2023/12/04 08:07:25;;;;;;;0.80;0.80;;;1.00;99.90;;;;;;7393711;19;20138;-78
2023/12/04 08:09:52;;;;;;;1.90;0.93;;;1.00;99.90;;;;;;7390237;19;20135;-77
2023/12/04 08:12:18;;;;;;;1.27;1.17;;;1.10;99.90;;;;;;7393463;19;20130;-78
2023/12/04 08:14:43;;;;;;;1.60;1.17;;;1.10;99.90;;;;;;7397748;19;20122;-78
2023/12/04 08:17:09;;;;;;;1.27;1.20;;;1.10;99.90;;;;;;7394763;19;20616;-77
2023/12/04 08:19:37;;;;;;;2.30;1.53;;;1.20;99.90;;;;;;7394989;19;20146;-77
2023/12/04 08:22:03;;;;;;;1.10;1.03;;;1.20;99.90;;;;;;7392972;19;20151;-77
2023/12/04 08:24:29;;;;;;;1.33;1.23;;;1.10;99.90;;;;;;7392393;19;20138;-77
2023/12/04 08:26:57;;;;;;;0.70;0.70;;;1.20;99.90;;;;;;7392503;19;20161;-78
2023/12/04 08:29:22;;;;;;;1.87;1.27;;;0.80;99.90;;;;;;7395461;19;20131;-77
2023/12/04 08:31:48;;;;;;;1.93;1.37;;;0.80;99.90;;;;;;7392257;19;20206;-77
2023/12/04 08:34:15;;;;;;;1.03;1.00;;;0.80;99.90;;;;;;7393462;19;20134;-77
2023/12/04 08:36:41;;;;;;;1.23;1.13;;;0.70;99.90;;;;;;7394406;19;20615;-77
2023/12/04 08:39:06;;;;;;;1.10;1.10;;;0.90;99.90;;;;;;7394005;19;20171;-77
2023/12/04 08:41:32;;;;;;;1.00;0.90;;;1.00;99.90;;;;;;7389401;19;20127;-76
2023/12/04 08:43:58;;;;;;;1.20;1.10;;;1.10;99.90;;;;;;7394172;19;20175;-76
2023/12/04 08:46:24;;;;;;;1.07;1.07;;;1.10;99.90;;;;;;7392279;19;20139;-77
2023/12/04 08:48:50;;;;;;;1.30;1.20;;;1.30;99.90;;;;;;7396223;19;20134;-77
2023/12/04 08:51:17;;;;;;;3.03;2.73;;;1.40;99.90;;;;;;7392454;19;20127;-78
2023/12/04 08:54:07;;;;;;;2.07;1.20;;;1.30;99.90;;;;;;7403061;19;20134;-77
2023/12/04 08:56:33;;;;;;;0.67;0.67;;;1.30;99.90;;;;;;7396689;19;20143;-76
2023/12/04 08:58:58;;;;;;;0.57;0.57;;;1.40;99.90;;;;;;7394438;19;20145;-75
2023/12/04 09:01:25;;;;;;;0.93;0.73;;;1.40;99.90;;;;;;7406746;19;20134;-78
2023/12/04 09:03:52;;;;;;;2.03;1.43;;;1.40;99.90;;;;;;7397430;19;20138;-78
2023/12/04 09:06:23;;;;;;;0.67;0.67;;;1.50;99.90;;;;;;7397165;19;20127;-78
2023/12/04 09:08:49;;;;;;;1.87;1.33;;;1.40;99.90;;;;;;7397745;19;20477;-79
2023/12/04 09:11:14;;;;;;;1.47;1.37;;;1.50;99.90;;;;;;7392622;19;20221;-80
2023/12/04 09:13:40;;;;;;;1.03;0.93;;;1.60;99.90;;;;;;7399994;19;20135;-79
2023/12/04 09:16:06;;;;;;;1.63;1.53;;;1.60;99.90;;;;;;7395116;19;20570;-77
2023/12/04 09:18:32;;;;;;;1.40;1.30;;;1.60;99.90;;;;;;7389346;19;20588;-78
2023/12/04 09:20:58;;;;;;;0.83;0.73;;;1.40;99.90;;;;;;7393918;19;20150;-78
2023/12/04 09:23:24;;;;;;;1.20;1.10;;;1.50;99.90;;;;;;7393693;19;20167;-80
2023/12/04 09:25:50;;;;;;;1.40;1.30;;;1.20;99.90;;;;;;7392858;19;20143;-78
2023/12/04 09:28:16;;;;;;;1.63;1.20;;;1.40;99.90;;;;;;7391425;19;20156;-76
2023/12/04 09:30:42;;;;;;;1.53;1.43;;;1.20;99.90;;;;;;7390719;19;20138;-78
2023/12/04 09:33:08;;;;;;;1.27;1.03;;;1.40;99.90;;;;;;7392239;19;20158;-78
2023/12/04 09:35:34;;;;;;;0.80;0.70;;;1.60;99.90;;;;;;7392105;19;20143;-81
2023/12/04 09:38:00;;;;;;;1.70;1.23;;;1.70;99.90;;;;;;7395383;19;20211;-78
2023/12/04 09:40:26;;;;;;;0.87;0.87;;;1.70;99.90;;;;;;7391006;19;20454;-78
2023/12/04 09:42:52;;;;;;;0.57;0.57;;;1.80;99.90;;;;;;7390498;19;20679;-80
2023/12/04 09:45:20;;;;;;;1.73;1.30;;;1.70;99.90;;;;;;7390723;19;20624;-80
2023/12/04 09:47:49;;;;;;;1.10;1.00;;;1.80;99.90;;;;;;7391074;19;20214;-79
2023/12/04 09:50:17;;;;;;;1.23;1.13;;;1.80;99.90;;;;;;7392214;19;20151;-80
2023/12/04 09:52:43;;;;;;;1.30;1.20;;;1.90;99.90;;;;;;7391125;19;20135;-78
2023/12/04 09:55:09;;;;;;;1.40;1.17;;;1.80;99.90;;;;;;7392482;19;20608;-77
2023/12/04 09:57:35;;;;;;;2.63;1.87;;;1.90;99.90;;;;;;7390794;19;20593;-77
2023/12/04 10:00:04;;;;;;;3.13;0.80;;;2.00;99.90;;;;;;7390171;19;20161;-78
2023/12/04 10:02:52;;;;;;;3.83;1.13;;;2.10;99.90;;;;;;7392592;19;20450;-78
2023/12/04 10:05:17;;;;;;;1.50;1.40;;;2.10;99.90;;;;;;7390341;19;20175;-79
2023/12/04 10:07:43;;;;;;;1.70;1.50;;;2.20;99.90;;;;;;7393089;19;20126;-80
2023/12/04 10:10:14;;;;;;;1.17;1.07;;;2.20;99.90;;;;;;7391235;19;20130;-77
2023/12/04 10:12:39;;;;;;;7.07;2.07;;;2.10;99.90;;;;;;7388421;19;20149;-78
2023/12/04 10:15:10;;;;;;;1.93;1.73;;;2.10;99.90;;;;;;7390904;19;20135;-78
2023/12/04 10:17:38;;;;;;;2.60;2.40;;;1.70;99.90;;;;;;7389386;19;20155;-78
2023/12/04 10:20:11;;;;;;;1.43;1.23;;;1.80;99.90;;;;;;7391434;19;20168;-78
2023/12/04 10:22:55;;;;;;;1.47;1.30;;;1.60;99.90;;;;;;7389948;19;20191;-77
2023/12/04 10:25:22;;;;;;;1.60;1.50;;;1.80;99.90;;;;;;7389384;19;20502;-78
2023/12/04 10:27:50;;;;;;;1.93;1.83;;;1.90;99.90;;;;;;7390053;19;20142;-77
2023/12/04 10:30:30;;;;;;;0.70;0.70;;;2.50;99.90;;;;;;7392881;19;20142;-76
2023/12/04 10:33:00;;;;;;;2.33;2.10;;;2.00;99.90;;;;;;7395926;19;20655;-80
2023/12/04 10:35:36;;;;;;;2.03;1.00;;;2.00;99.90;;;;;;7389973;19;20134;-75
2023/12/04 10:38:03;;;;;;;1.33;0.90;;;2.20;99.90;;;;;;7392055;19;20173;-81
2023/12/04 10:40:33;;;;;;;1.77;1.63;;;2.20;99.90;;;;;;7392679;19;20138;-77
2023/12/04 10:43:17;;;;;;;1.23;1.13;;;2.20;99.90;;;;;;7386646;19;20198;-77
2023/12/04 10:45:45;;;;;;;1.70;1.20;;;2.30;99.90;;;;;;7390991;19;20154;-77
2023/12/04 10:48:12;;;;;;;1.40;1.30;;;2.20;99.90;;;;;;7392409;19;20146;-77
2023/12/04 10:50:44;;;;;;;1.70;1.60;;;2.40;99.90;;;;;;7393217;19;20138;-76
2023/12/04 10:53:16;;;;;;;1.93;1.60;;;2.60;99.90;;;;;;7389549;19;20151;-78
2023/12/04 10:55:44;;;;;;;1.77;1.57;;;2.70;99.90;;;;;;7392464;19;20158;-78
2023/12/04 10:58:17;;;;;;;2.20;1.53;;;2.80;99.90;;;;;;7395675;19;20592;-79
2023/12/04 11:00:48;;;;;;;2.87;1.37;;;2.70;99.90;;;;;;7391103;19;20143;-76
2023/12/04 11:03:20;;;;;;;3.03;1.60;;;2.60;99.90;;;;;;7388847;19;20754;-76
2023/12/04 11:05:50;;;;;;;1.87;1.77;;;2.70;99.90;;;;;;7390567;19;20142;-76
2023/12/04 11:08:18;;;;;;;2.27;1.80;;;2.80;99.90;;;;;;7391423;19;20682;-76
2023/12/04 11:11:03;;;;;;;2.83;1.17;;;2.90;99.90;;;;;;7391322;19;20142;-79
2023/12/04 11:13:35;;;;;;;2.30;1.43;;;3.00;99.90;;;;;;7389139;19;20166;-75
2023/12/04 11:16:05;;;;;;;4.67;1.67;;;3.00;99.90;;;;;;7392956;19;20147;-77
2023/12/04 11:18:36;;;;;;;1.27;1.17;;;3.00;99.90;;;;;;7387594;19;20142;-74
2023/12/04 11:21:10;;;;;;;2.90;2.17;;;2.90;99.90;;;;;;7392281;19;20141;-79
2023/12/04 11:23:52;;;;;;;1.90;1.60;;;2.90;99.90;;;;;;7388947;19;20499;-77
2023/12/04 11:26:18;;;;;;;2.00;1.63;;;2.70;99.90;;;;;;7386597;19;20453;-76
2023/12/04 11:28:44;;;;;;;1.53;1.33;;;2.80;99.90;;;;;;7389098;19;20171;-77
2023/12/04 11:31:11;;;;;;;0.90;0.90;;;2.80;99.90;;;;;;7388342;19;20130;-78
2023/12/04 11:33:37;;;;;;;1.30;1.20;;;2.90;99.90;;;;;;7388833;19;20150;-75
2023/12/04 11:36:14;;;;;;;1.40;1.00;;;2.80;99.90;;;;;;7388471;19;20145;-76
2023/12/04 11:38:48;;;;;;;2.93;1.50;;;2.80;99.90;;;;;;7395077;19;20138;-76
2023/12/04 11:41:21;;;;;;;1.47;1.30;;;2.90;99.90;;;;;;7396535;19;20142;-76
2023/12/04 11:43:48;;;;;;;1.77;1.10;;;2.80;99.90;;;;;;7392550;19;20191;-74
2023/12/04 11:46:23;;;;;;;2.33;1.80;;;3.00;99.90;;;;;;7394922;19;20135;-76
2023/12/04 11:48:50;;;;;;;1.07;0.97;;;3.00;99.90;;;;;;7394402;19;20142;-77
2023/12/04 11:51:38;;;;;;;2.17;1.97;;;3.00;99.90;;;;;;7394268;19;20134;-81
2023/12/04 11:54:08;;;;;;;2.83;2.13;;;2.90;99.90;;;;;;7394848;19;20145;-76
2023/12/04 11:56:34;;;;;;;1.40;1.30;;;3.00;99.90;;;;;;7396027;19;20137;-79
2023/12/04 11:59:04;;;;;;;1.70;1.20;;;3.00;99.90;;;;;;7394237;19;20473;-79
2023/12/04 12:01:37;;;;;;;3.57;1.60;;;3.00;99.90;;;;;;7396320;19;20459;-78
2023/12/04 12:04:10;;;;;;;2.60;1.90;;;2.90;99.90;;;;;;7396975;19;20212;-78
2023/12/04 12:06:35;;;;;;;1.37;1.27;;;2.90;99.90;;;;;;7394708;19;20135;-79
2023/12/04 12:09:01;;;;;;;1.77;1.30;;;2.90;99.90;;;;;;7397244;19;20226;-81
2023/12/04 12:11:28;;;;;;;1.70;1.60;;;2.90;99.90;;;;;;7394478;19;20159;-81
2023/12/04 12:13:54;;;;;;;1.30;1.20;;;2.90;99.90;;;;;;7396770;19;20158;-79
2023/12/04 12:16:23;;;;;;;1.40;1.30;;;2.90;99.90;;;;;;7394259;19;20178;-80
2023/12/04 12:18:52;;;;;;;2.30;1.17;;;2.90;99.90;;;;;;7397379;19;20138;-78
2023/12/04 12:21:19;;;;;;;2.77;1.87;;;2.90;99.90;;;;;;7395690;19;20147;-79
2023/12/04 12:23:45;;;;;;;2.13;1.20;;;3.00;99.90;;;;;;7394846;19;20170;-79
2023/12/04 12:26:11;;;;;;;1.73;1.63;;;3.10;99.90;;;;;;7398267;19;20150;-82
2023/12/04 12:28:37;;;;;;;1.80;1.50;;;2.80;99.90;;;;;;7393529;19;20154;-80
2023/12/04 12:31:04;;;;;;;3.53;2.03;;;2.90;99.90;;;;;;7396192;19;20126;-79
2023/12/04 12:33:30;;;;;;;2.60;2.40;;;3.00;99.90;;;;;;7392973;19;20876;-82
2023/12/04 12:35:57;;;;;;;1.57;1.30;;;3.10;99.90;;;;;;7395244;19;20150;-81
2023/12/04 12:38:26;;;;;;;2.10;1.90;;;3.10;99.90;;;;;;7393982;19;20150;-78
2023/12/04 12:40:51;;;;;;;3.20;2.20;;;3.00;99.90;;;;;;7397289;19;20130;-80
2023/12/04 12:43:23;;;;;;;2.43;2.00;;;3.00;99.90;;;;;;7391551;19;20177;-80
2023/12/04 12:45:48;;;;;;;1.77;1.67;;;3.00;99.90;;;;;;7394786;19;20618;-80
2023/12/04 12:48:15;;;;;;;2.70;2.00;;;2.90;99.90;;;;;;7391957;19;20142;-77
2023/12/04 12:50:45;;;;;;;1.60;1.47;;;2.90;99.90;;;;;;7396465;19;20142;-77
2023/12/04 12:53:12;;;;;;;1.90;1.73;;;3.00;99.90;;;;;;7395251;19;20214;-76
2023/12/04 12:55:40;;;;;;;3.10;2.00;;;2.80;99.90;;;;;;7401315;19;20150;-78
2023/12/04 12:58:06;;;;;;;1.37;1.27;;;2.80;99.90;;;;;;7393954;19;20131;-79